createdAt,value
2019-04-23T00:01:14.828Z,44.30
2019-04-23T00:03:42.937Z,44.40
2019-04-23T00:06:15.530Z,44.60
2019-04-23T00:08:42.172Z,44.70
2019-04-23T00:11:05.293Z,44.60
2019-04-23T00:13:30.326Z,44.80
2019-04-23T00:16:03.034Z,44.90
2019-04-23T00:18:36.904Z,45.30
2019-04-23T00:20:58.111Z,45.40
2019-04-23T00:23:25.074Z,45.50
2019-04-23T00:26:04.880Z,45.80
2019-04-23T00:28:35.365Z,45.80
2019-04-23T00:31:00.434Z,46.00
2019-04-23T00:33:27.001Z,46.00
2019-04-23T00:35:50.093Z,46.10
2019-04-23T00:38:28.356Z,46.20
2019-04-23T00:40:54.022Z,46.20
2019-04-23T00:45:50.251Z,46.10
2019-04-23T00:48:24.166Z,46.20
2019-04-23T00:50:56.213Z,46.20
2019-04-23T00:53:12.049Z,46.40
2019-04-23T00:55:44.724Z,46.60
2019-04-23T00:58:12.490Z,46.90
2019-04-23T01:00:41.973Z,46.80
2019-04-23T01:03:10.363Z,47.00
2019-04-23T01:05:35.204Z,47.30
2019-04-23T01:08:06.786Z,47.30
2019-04-23T01:10:34.683Z,47.30
2019-04-23T01:15:37.250Z,47.50
2019-04-23T01:18:02.215Z,47.50
2019-04-23T01:20:36.570Z,47.70
2019-04-23T01:22:44.310Z,48.30
2019-04-23T01:25:34.202Z,47.80
2019-04-23T01:28:17.780Z,47.90
2019-04-23T01:30:48.907Z,47.80
2019-04-23T01:33:25.531Z,48.00
2019-04-23T01:35:39.635Z,47.90
2019-04-23T01:38:16.509Z,47.60
2019-04-23T01:43:07.950Z,47.80
2019-04-23T01:45:30.774Z,47.80
2019-04-23T01:48:17.889Z,47.90
2019-04-23T01:53:13.773Z,47.70
2019-04-23T01:55:34.503Z,47.70
2019-04-23T01:58:20.175Z,47.80
2019-04-23T02:00:37.060Z,47.90
2019-04-23T02:08:24.298Z,47.40
2019-04-23T02:10:58.318Z,47.60
2019-04-23T02:13:23.729Z,47.90
2019-04-23T02:15:49.407Z,47.60
2019-04-23T02:18:17.982Z,48.10
2019-04-23T02:20:47.805Z,48.20
2019-04-23T02:28:19.563Z,48.70
2019-04-23T02:34:18.008Z,49.20
2019-04-23T02:36:29.272Z,48.80
2019-04-23T02:38:56.270Z,48.30
2019-04-23T02:43:59.565Z,48.30
2019-04-23T02:46:09.370Z,48.30
2019-04-23T02:51:19.021Z,48.20
2019-04-23T02:53:53.507Z,47.80
2019-04-23T02:56:21.570Z,47.90
2019-04-23T02:58:46.127Z,48.10
2019-04-23T03:01:19.503Z,48.30
2019-04-23T03:03:44.753Z,48.50
2019-04-23T03:06:22.839Z,48.50
2019-04-23T03:11:07.135Z,49.20
2019-04-23T03:13:39.257Z,49.10
2019-04-23T03:21:33.406Z,48.90
2019-04-23T03:24:04.482Z,49.50
2019-04-23T03:34:10.958Z,50.10
2019-04-23T03:43:39.305Z,50.10
2019-04-23T03:46:16.056Z,49.80
2019-04-23T03:48:41.613Z,49.80
2019-04-23T03:51:01.310Z,49.90
2019-04-23T03:53:48.971Z,49.90
2019-04-23T03:56:16.041Z,50.00
2019-04-23T04:03:53.123Z,49.80
2019-04-23T04:08:44.598Z,49.70
2019-04-23T04:11:11.045Z,49.70
2019-04-23T04:15:55.368Z,50.10
2019-04-23T04:18:32.988Z,50.10
2019-04-23T04:20:49.328Z,50.10
2019-04-23T04:25:49.927Z,50.00
2019-04-23T04:28:35.996Z,49.90
2019-04-23T04:30:47.645Z,50.60
2019-04-23T04:33:29.938Z,50.10
2019-04-23T04:35:53.693Z,50.10
2019-04-23T04:38:36.375Z,50.20
2019-04-23T04:40:57.683Z,50.20
2019-04-23T04:48:18.141Z,50.40
2019-04-23T04:50:50.786Z,50.80
2019-04-23T04:53:47.021Z,50.90
2019-04-23T04:55:48.037Z,51.30
2019-04-23T04:58:12.927Z,51.00
2019-04-23T05:00:57.059Z,51.20
2019-04-23T05:03:19.226Z,50.50
2019-04-23T05:08:15.583Z,50.60
2019-04-23T05:10:45.813Z,50.40
2019-04-23T05:13:24.683Z,50.80
2019-04-23T05:15:45.081Z,50.80
2019-04-23T05:21:21.362Z,50.80
2019-04-23T05:26:19.246Z,51.30
2019-04-23T05:28:52.438Z,51.00
2019-04-23T05:31:09.849Z,50.80
2019-04-23T05:33:38.813Z,51.00
2019-04-23T05:41:09.940Z,50.30
2019-04-23T05:43:32.351Z,50.70
2019-04-23T05:45:57.391Z,50.50
2019-04-23T05:48:24.843Z,49.80
2019-04-23T05:53:27.854Z,50.30
2019-04-23T05:55:57.068Z,50.20
2019-04-23T05:58:22.016Z,50.30
2019-04-23T06:00:59.349Z,50.60
2019-04-23T06:08:25.036Z,50.60
2019-04-23T06:10:48.152Z,50.90
2019-04-23T06:13:22.487Z,50.10
2019-04-23T06:15:43.818Z,51.20
2019-04-23T06:18:20.021Z,50.70
2019-04-23T06:20:54.353Z,50.00
2019-04-23T06:23:18.161Z,50.00
2019-04-23T06:26:02.289Z,49.70
2019-04-23T06:28:14.506Z,49.50
2019-04-23T06:33:08.926Z,48.60
2019-04-23T06:35:39.416Z,48.80
2019-04-23T06:38:22.928Z,48.80
2019-04-23T06:40:48.833Z,49.10
2019-04-23T06:43:21.406Z,48.70
2019-04-23T06:46:01.348Z,49.20
2019-04-23T06:48:16.647Z,49.40
2019-04-23T06:53:09.405Z,47.70
2019-04-23T06:55:45.712Z,46.10
2019-04-23T06:58:12.997Z,45.50
2019-04-23T07:00:42.000Z,45.60
2019-04-23T07:03:11.467Z,45.70
2019-04-23T07:06:03.446Z,44.90
2019-04-23T07:08:39.914Z,44.00
2019-04-23T07:10:55.525Z,42.30
2019-04-23T07:13:21.486Z,41.30
2019-04-23T07:15:58.505Z,44.60
2019-04-23T07:18:18.043Z,45.80
2019-04-23T07:20:46.473Z,45.80
2019-04-23T07:23:13.457Z,46.30
2019-04-23T07:25:40.459Z,45.10
2019-04-23T07:28:12.915Z,43.80
2019-04-23T07:30:33.161Z,43.80
2019-04-23T07:33:07.318Z,43.40
2019-04-23T07:35:30.420Z,43.50
2019-04-23T07:38:16.363Z,43.00
2019-04-23T07:40:35.976Z,44.00
2019-04-23T07:43:11.638Z,44.10
2019-04-23T07:45:35.374Z,43.80
2019-04-23T07:55:56.897Z,42.40
2019-04-23T07:58:14.325Z,41.70
2019-04-23T08:00:43.071Z,39.90
2019-04-23T08:03:10.980Z,38.00
2019-04-23T08:08:01.638Z,39.80
2019-04-23T08:15:34.920Z,38.40
2019-04-23T08:17:58.596Z,39.70
2019-04-23T08:20:30.315Z,38.60
2019-04-23T08:22:54.895Z,39.20
2019-04-23T08:25:37.294Z,38.80
2019-04-23T08:28:07.617Z,37.50
2019-04-23T08:30:36.150Z,36.80
2019-04-23T08:33:07.350Z,39.10
2019-04-23T08:35:35.825Z,39.20
2019-04-23T08:38:16.092Z,39.80
2019-04-23T08:40:33.533Z,38.20
2019-04-23T08:43:12.866Z,38.70
2019-04-23T08:45:35.177Z,38.30
2019-04-23T08:50:44.121Z,38.80
2019-04-23T08:53:23.297Z,39.10
2019-04-23T08:55:44.581Z,39.30
2019-04-23T08:58:09.697Z,37.60
2019-04-23T09:00:40.422Z,35.40
2019-04-23T09:03:06.253Z,35.70
2019-04-23T09:05:38.847Z,35.10
2019-04-23T09:08:07.020Z,34.70
2019-04-23T09:10:34.223Z,34.40
2019-04-23T09:13:32.176Z,33.80
2019-04-23T09:15:39.025Z,34.50
2019-04-23T09:18:05.792Z,33.90
2019-04-23T09:22:51.846Z,35.10
2019-04-23T09:25:32.096Z,34.80
2019-04-23T09:27:53.109Z,34.00
2019-04-23T09:30:25.216Z,33.50
2019-04-23T09:32:47.346Z,32.60
2019-04-23T09:35:20.743Z,30.50
2019-04-23T09:38:07.197Z,29.80
2019-04-23T09:41:09.812Z,28.30
2019-04-23T09:43:29.916Z,28.70
2019-04-23T09:46:12.423Z,28.90
2019-04-23T09:48:41.089Z,28.60
2019-04-23T09:51:06.150Z,30.70
2019-04-23T09:53:31.041Z,30.90
2019-04-23T09:55:57.940Z,30.80
2019-04-23T10:00:54.900Z,28.60
2019-04-23T10:03:16.666Z,28.20
2019-04-23T10:05:39.113Z,28.40
2019-04-23T10:08:06.612Z,29.00
2019-04-23T10:10:26.086Z,29.10
2019-04-23T10:12:53.881Z,29.10
2019-04-23T10:15:26.226Z,27.80
2019-04-23T10:17:50.007Z,28.20
2019-04-23T10:20:16.638Z,28.80
2019-04-23T10:22:44.254Z,28.30
2019-04-23T10:25:11.139Z,29.50
2019-04-23T10:27:39.051Z,28.50
2019-04-23T10:30:06.614Z,27.50
2019-04-23T10:32:35.651Z,27.80
2019-04-23T10:35:15.884Z,27.60
2019-04-23T10:37:42.695Z,28.10
2019-04-23T10:40:05.788Z,29.40
2019-04-23T10:42:31.455Z,30.10
2019-04-23T10:45:22.630Z,30.70
2019-04-23T10:48:31.731Z,30.50
2019-04-23T11:00:53.753Z,28.40
2019-04-23T11:03:38.167Z,28.10
2019-04-23T11:05:50.234Z,26.80
2019-04-23T11:08:11.235Z,26.10
2019-04-23T11:10:41.034Z,25.10
2019-04-23T11:13:14.744Z,24.30
2019-04-23T11:15:55.820Z,25.80
2019-04-23T11:17:58.377Z,25.20
2019-04-23T11:21:07.408Z,26.60
2019-04-23T11:22:55.465Z,27.20
2019-04-23T11:25:42.852Z,27.10
2019-04-23T11:28:05.711Z,27.00
2019-04-23T11:30:45.141Z,27.90
2019-04-23T11:35:39.167Z,29.40
2019-04-23T11:42:59.643Z,28.60
2019-04-23T11:45:32.335Z,29.00
2019-04-23T11:50:27.844Z,27.50
2019-04-23T11:53:00.300Z,27.50
2019-04-23T11:55:35.785Z,26.80
2019-04-23T11:57:59.308Z,27.80
2019-04-23T12:00:30.817Z,27.80
2019-04-23T12:02:49.914Z,27.60
2019-04-23T12:05:41.377Z,27.60
2019-04-23T12:08:26.658Z,27.70
2019-04-23T12:11:10.446Z,26.70
2019-04-23T12:15:51.284Z,29.20
2019-04-23T12:18:24.051Z,28.80
2019-04-23T12:21:00.525Z,28.60
2019-04-23T12:28:08.069Z,30.40
2019-04-23T12:30:45.239Z,30.70
2019-04-23T12:33:11.420Z,30.50
2019-04-23T12:35:43.723Z,29.60
2019-04-23T12:38:07.349Z,29.40
2019-04-23T12:40:51.318Z,30.80
2019-04-23T12:45:42.182Z,30.90
2019-04-23T12:48:02.982Z,30.80
2019-04-23T12:50:46.832Z,29.40
2019-04-23T12:53:19.624Z,30.40
2019-04-23T12:55:39.100Z,31.30
2019-04-23T12:57:50.731Z,31.40
2019-04-23T13:00:36.955Z,30.50
2019-04-23T13:05:27.926Z,30.00
2019-04-23T13:08:22.680Z,31.40
2019-04-23T13:10:30.087Z,31.90
2019-04-23T13:15:25.175Z,31.60
2019-04-23T13:25:32.944Z,32.20
2019-04-23T13:30:54.277Z,32.60
2019-04-23T13:40:23.312Z,34.90
2019-04-23T13:42:55.181Z,35.30
2019-04-23T13:45:49.773Z,35.30
2019-04-23T13:53:07.864Z,37.30
2019-04-23T13:55:30.041Z,37.30
2019-04-23T14:00:20.559Z,37.90
2019-04-23T14:05:22.195Z,37.70
2019-04-23T14:10:29.218Z,37.00
2019-04-23T14:12:53.682Z,37.00
2019-04-23T14:15:34.423Z,37.80
2019-04-23T14:18:16.686Z,37.80
2019-04-23T14:20:21.457Z,37.10
2019-04-23T14:23:00.313Z,36.80
2019-04-23T14:27:56.335Z,36.80
2019-04-23T14:30:21.751Z,36.90
2019-04-23T14:32:45.452Z,37.10
2019-04-23T14:35:21.575Z,38.10
2019-04-23T14:37:54.900Z,38.20
2019-04-23T14:40:15.265Z,37.30
2019-04-23T14:45:29.625Z,37.20
2019-04-23T14:52:49.831Z,37.30
2019-04-23T15:00:07.177Z,36.40
2019-04-23T15:05:13.495Z,36.40
2019-04-23T15:07:34.576Z,36.70
2019-04-23T15:10:10.451Z,36.80
2019-04-23T15:12:30.568Z,36.90
2019-04-23T15:15:10.414Z,37.50
2019-04-23T15:17:27.284Z,38.00
2019-04-23T15:20:10.631Z,38.20
2019-04-23T15:25:21.490Z,37.70
2019-04-23T15:29:55.996Z,37.80
2019-04-23T15:32:43.904Z,37.60
2019-04-23T15:35:18.512Z,36.90
2019-04-23T15:40:02.319Z,37.50
2019-04-23T15:42:32.935Z,37.80
2019-04-23T15:45:00.931Z,38.10
2019-04-23T15:47:32.699Z,38.00
2019-04-23T15:52:19.223Z,38.90
2019-04-23T15:54:48.341Z,39.00
2019-04-23T15:57:27.593Z,38.70
2019-04-23T15:59:48.191Z,38.90
2019-04-23T16:01:44.060Z,39.60
2019-04-23T16:04:13.137Z,39.20
2019-04-23T16:06:38.981Z,38.90
2019-04-23T16:09:29.387Z,38.40
2019-04-23T16:12:24.576Z,38.20
2019-04-23T16:19:54.148Z,38.30
2019-04-23T16:22:11.349Z,39.00
2019-04-23T16:24:37.141Z,38.90
2019-04-23T16:27:10.979Z,38.50
2019-04-23T16:29:53.694Z,39.20
2019-04-23T16:32:14.786Z,38.90
2019-04-23T16:39:30.848Z,39.50
2019-04-23T16:42:08.836Z,40.00
2019-04-23T16:44:40.411Z,40.30
2019-04-23T16:47:04.098Z,40.70
2019-04-23T16:49:22.673Z,41.20
2019-04-23T16:51:59.745Z,40.90
2019-04-23T16:57:13.293Z,40.20
2019-04-23T16:59:17.908Z,41.10
2019-04-23T17:01:52.160Z,41.50
2019-04-23T17:04:34.439Z,41.40
2019-04-23T17:06:46.530Z,41.70
2019-04-23T17:09:38.596Z,41.70
2019-04-23T17:11:41.795Z,41.90
2019-04-23T17:14:13.391Z,42.10
2019-04-23T17:19:10.410Z,41.90
2019-04-23T17:21:36.629Z,42.00
2019-04-23T17:26:30.681Z,42.80
2019-04-23T17:33:59.228Z,43.40
2019-04-23T17:36:38.250Z,43.60
2019-04-23T17:41:33.141Z,43.20
2019-04-23T17:44:09.584Z,43.30
2019-04-23T17:46:32.328Z,44.00
2019-04-23T17:49:08.132Z,44.20
2019-04-23T17:51:28.089Z,43.80
2019-04-23T17:53:58.293Z,43.90
2019-04-23T17:58:53.878Z,43.40
2019-04-23T18:06:30.195Z,43.00
2019-04-23T18:08:53.977Z,43.30
2019-04-23T18:11:16.038Z,43.40
2019-04-23T18:16:20.957Z,43.20
2019-04-23T18:21:29.209Z,43.10
2019-04-23T18:24:13.468Z,43.90
2019-04-23T18:26:36.849Z,44.20
2019-04-23T18:29:06.713Z,44.50
2019-04-23T18:31:44.555Z,44.10
2019-04-23T18:34:16.338Z,44.40
2019-04-23T18:36:41.906Z,45.00
2019-04-23T18:39:08.433Z,45.10
2019-04-23T18:41:43.282Z,45.70
2019-04-23T18:46:38.539Z,46.40
2019-04-23T18:49:22.016Z,45.80
2019-04-23T18:51:33.896Z,45.80
2019-04-23T18:53:54.454Z,45.60
2019-04-23T18:56:30.860Z,46.00
2019-04-23T19:01:27.832Z,46.50
2019-04-23T19:04:17.236Z,45.90
2019-04-23T19:06:37.671Z,45.30
2019-04-23T19:09:23.925Z,45.70
2019-04-23T19:14:35.239Z,45.80
2019-04-23T19:17:08.995Z,46.70
2019-04-23T19:19:19.617Z,46.70
2019-04-23T19:24:15.801Z,47.10
2019-04-23T19:27:05.736Z,47.10
2019-04-23T19:34:39.480Z,47.60
2019-04-23T19:41:59.452Z,49.10
2019-04-23T19:46:54.823Z,48.60
2019-04-23T19:49:19.710Z,49.40
2019-04-23T19:51:49.428Z,49.60
2019-04-23T19:54:34.019Z,49.70
2019-04-23T19:56:52.771Z,50.00
2019-04-23T19:59:14.104Z,50.50
2019-04-23T20:01:41.717Z,50.60
2019-04-23T20:04:23.446Z,50.10
2019-04-23T20:06:58.539Z,50.10
2019-04-23T20:16:46.738Z,50.80
2019-04-23T20:21:20.803Z,51.10
2019-04-23T20:24:03.906Z,51.20
2019-04-23T20:29:19.425Z,50.80
2019-04-23T20:34:31.284Z,50.80
2019-04-23T20:36:51.389Z,51.30
2019-04-23T20:44:35.288Z,51.70
2019-04-23T20:47:02.906Z,52.10
2019-04-23T20:49:16.600Z,52.10
2019-04-23T20:51:58.167Z,52.10
2019-04-23T20:54:18.588Z,52.10
2019-04-23T20:56:56.299Z,52.50
2019-04-23T20:59:11.351Z,52.80
2019-04-23T21:02:15.122Z,52.80
2019-04-23T21:04:41.039Z,52.60
2019-04-23T21:07:09.886Z,52.70
2019-04-23T21:09:43.854Z,53.40
2019-04-23T21:12:15.820Z,53.80
2019-04-23T21:14:39.090Z,54.40
2019-04-23T21:16:56.815Z,54.30
2019-04-23T21:19:30.748Z,54.30
2019-04-23T21:22:04.464Z,54.50
2019-04-23T21:24:36.763Z,54.70
2019-04-23T21:27:13.001Z,54.70
2019-04-23T21:29:43.264Z,55.60
2019-04-23T21:32:14.863Z,55.10
2019-04-23T21:34:54.414Z,55.10
2019-04-23T21:37:04.501Z,55.10
2019-04-23T21:39:53.528Z,55.30
2019-04-23T21:42:09.641Z,55.60
2019-04-23T21:44:40.814Z,55.90
2019-04-23T21:52:02.208Z,57.50
2019-04-23T21:54:35.300Z,58.00
2019-04-23T21:56:56.354Z,58.60
2019-04-23T21:59:17.457Z,59.50
2019-04-23T22:01:55.761Z,59.60
2019-04-23T22:04:33.195Z,59.80
2019-04-23T22:09:22.325Z,60.90
2019-04-23T22:14:33.299Z,60.30
2019-04-23T22:16:58.056Z,60.90
2019-04-23T22:19:15.063Z,60.90
2019-04-23T22:21:45.317Z,60.70
2019-04-23T22:24:19.868Z,60.90
2019-04-23T22:26:37.963Z,61.30
2019-04-23T22:29:16.459Z,62.00
2019-04-23T22:34:09.207Z,63.70
2019-04-23T22:39:03.112Z,63.60
2019-04-23T22:41:40.086Z,63.80
2019-04-23T22:44:07.285Z,64.10
2019-04-23T22:46:43.273Z,64.70
2019-04-23T22:49:17.600Z,65.00
2019-04-23T22:51:41.992Z,65.10
2019-04-23T22:56:35.571Z,66.00
2019-04-23T22:59:11.620Z,66.00
2019-04-23T23:04:05.064Z,66.10
2019-04-23T23:06:46.080Z,66.30
2019-04-23T23:09:14.657Z,66.40
2019-04-23T23:11:26.631Z,66.00
2019-04-23T23:14:09.629Z,66.60
2019-04-23T23:19:02.095Z,67.60
2019-04-23T23:21:22.308Z,67.90
2019-04-23T23:23:57.375Z,67.90
2019-04-23T23:26:14.262Z,67.80
2019-04-23T23:28:44.591Z,68.30
2019-04-23T23:31:13.578Z,69.10
2019-04-23T23:33:47.119Z,69.00
2019-04-23T23:36:12.146Z,68.90
2019-04-23T23:38:50.831Z,69.20
2019-04-23T23:43:41.837Z,69.90
2019-04-23T23:48:35.570Z,70.60
2019-04-23T23:51:09.893Z,70.30
2019-04-23T23:56:05.517Z,70.20
2019-04-23T23:58:33.639Z,70.50
